Time;durP1;ratioP1;P1;durP2;ratioP2;P2;SDS_P1;SDS_P2;PMS_P1;PMS_P2;Temp;Humidity;BMP_temperature;BMP_pressure;BME280_temperature;BME280_humidity;BME280_pressure;Samples;Min_cycle;Max_cycle;Signal;HPM_P1;HPM_P2
2023/06/22 00:01:00;;;;;;;10.55;5.97;;;;;;;19.83;100.00;93048.69;4770854;30;20542;-78
2023/06/22 00:03:26;;;;;;;16.40;6.50;;;;;;;19.84;100.00;93054.81;4754788;30;20101;-78
2023/06/22 00:05:52;;;;;;;18.33;6.55;;;;;;;19.82;100.00;93059.66;4770878;30;20035;-78
2023/06/22 00:08:18;;;;;;;17.02;6.50;;;;;;;19.78;100.00;93051.56;4748900;30;20372;-78
2023/06/22 00:10:45;;;;;;;16.50;6.60;;;;;;;19.78;100.00;93067.50;4751985;30;20048;-78
2023/06/22 00:13:12;;;;;;;14.43;6.63;;;;;;;19.79;100.00;93057.66;4753179;30;20048;-77
2023/06/22 00:15:39;;;;;;;11.82;6.57;;;;;;;19.78;100.00;93056.13;4753666;30;20039;-78
2023/06/22 00:18:09;;;;;;;16.85;7.00;;;;;;;19.78;100.00;93059.53;4753550;30;20056;-77
2023/06/22 00:20:38;;;;;;;14.10;6.80;;;;;;;19.76;100.00;93049.25;4764088;30;20090;-78
2023/06/22 00:23:08;;;;;;;18.70;6.53;;;;;;;19.74;100.00;93050.69;4769866;30;20039;-78
2023/06/22 00:25:39;;;;;;;19.20;6.72;;;;;;;19.74;100.00;93061.31;4769048;30;20055;-78
2023/06/22 00:28:33;;;;;;;13.80;5.97;;;;;;;19.72;100.00;93050.22;4771220;30;20062;-78
2023/06/22 00:31:01;;;;;;;10.68;5.97;;;;;;;19.73;100.00;93044.59;4769052;30;20051;-78
2023/06/22 00:33:28;;;;;;;11.60;5.65;;;;;;;19.73;100.00;93051.78;4768934;30;20085;-78
2023/06/22 00:35:53;;;;;;;14.68;6.28;;;;;;;19.73;100.00;93049.91;4769915;30;20079;-78
2023/06/22 00:38:19;;;;;;;15.23;6.47;;;;;;;19.74;100.00;93043.47;4770262;30;20055;-78
2023/06/22 00:40:45;;;;;;;20.10;5.90;;;;;;;19.75;100.00;93034.41;4768794;30;20040;-78
2023/06/22 00:43:10;;;;;;;13.68;6.25;;;;;;;19.76;100.00;93041.25;4769017;30;20040;-78
2023/06/22 00:45:36;;;;;;;12.85;6.15;;;;;;;19.74;100.00;93040.81;4768553;30;20495;-78
2023/06/22 00:48:02;;;;;;;16.42;6.50;;;;;;;19.75;100.00;93046.94;4768724;30;20058;-78
2023/06/22 00:50:35;;;;;;;13.25;5.65;;;;;;;19.75;100.00;93050.34;4768327;30;20067;-78
2023/06/22 00:53:08;;;;;;;;;;;;;;;19.76;100.00;93054.53;4768928;30;20526;-78
2023/06/22 00:55:51;;;;;;;11.15;5.70;;;;;;;19.79;100.00;93052.34;4770007;30;19918;-77
2023/06/22 00:58:21;;;;;;;11.48;6.20;;;;;;;19.79;100.00;93053.13;4769768;30;20039;-77
2023/06/22 01:00:48;;;;;;;14.45;6.38;;;;;;;19.80;100.00;93062.66;4769688;30;20035;-77
2023/06/22 01:03:14;;;;;;;17.55;6.13;;;;;;;19.81;100.00;93071.38;4769816;30;20051;-77
2023/06/22 01:05:40;;;;;;;15.48;6.43;;;;;;;19.82;100.00;93062.31;4760583;30;20048;-78
2023/06/22 01:08:41;;;;;;;15.23;6.20;;;;;;;19.83;100.00;93059.31;4751874;30;20135;-78
2023/06/22 01:11:20;;;;;;;15.77;6.82;;;;;;;19.83;100.00;93061.97;4752059;30;20046;-77
2023/06/22 01:13:58;;;;;;;11.95;6.28;;;;;;;19.83;100.00;93059.31;4750307;30;20036;-77
2023/06/22 01:16:30;;;;;;;13.90;6.25;;;;;;;19.82;100.00;93060.44;4751601;30;20110;-78
2023/06/22 01:19:00;;;;;;;12.63;6.50;;;;;;;19.82;100.00;93057.00;4750065;30;20066;-78
2023/06/22 01:21:31;;;;;;;16.70;5.85;;;;;;;19.81;100.00;93060.75;4759713;30;20122;-77
2023/06/22 01:24:17;;;;;;;13.13;5.57;;;;;;;19.80;100.00;93056.56;4768436;30;20462;-78
2023/06/22 01:26:50;;;;;;;16.63;6.00;;;;;;;19.81;100.00;93060.75;4769561;30;20403;-78
2023/06/22 01:29:17;;;;;;;14.73;6.05;;;;;;;19.80;100.00;93061.88;4769031;30;20039;-78
2023/06/22 01:31:44;;;;;;;10.52;5.85;;;;;;;19.80;100.00;93064.53;4769284;30;20427;-78
2023/06/22 01:34:13;;;;;;;16.73;5.82;;;;;;;19.78;99.15;93072.81;4767940;30;20419;-78
2023/06/22 01:36:40;;;;;;;11.27;5.40;;;;;;;19.79;98.77;93068.28;4751393;30;20060;-77
2023/06/22 01:39:07;;;;;;;12.13;5.85;;;;;;;19.78;98.34;93072.06;4750569;30;20531;-78
2023/06/22 01:41:36;;;;;;;12.07;5.95;;;;;;;19.76;98.43;93054.53;4751182;30;20126;-78
2023/06/22 01:44:07;;;;;;;14.18;6.50;;;;;;;19.74;98.97;93061.31;4750134;30;20051;-78
2023/06/22 01:46:37;;;;;;;11.63;5.63;;;;;;;19.71;98.53;93057.41;4751157;30;20507;-78
2023/06/22 01:49:04;;;;;;;9.75;5.60;;;;;;;19.71;98.29;93052.13;4765486;30;20206;-78
2023/06/22 01:51:30;;;;;;;15.45;6.13;;;;;;;19.70;98.51;93055.88;4751404;30;20055;-77
2023/06/22 01:53:59;;;;;;;14.60;6.20;;;;;;;19.68;98.28;93047.44;4764937;30;20060;-78
2023/06/22 01:56:26;;;;;;;12.27;6.28;;;;;;;19.67;98.49;93059.16;4720924;30;20048;-78
2023/06/22 01:59:17;;;;;;;17.55;5.70;;;;;;;19.66;98.19;93054.97;4764729;30;20118;-77
2023/06/22 02:02:00;;;;;;;17.25;5.88;;;;;;;19.65;98.39;93056.03;4751072;30;20135;-77
2023/06/22 02:05:10;;;;;;;13.85;5.82;;;;;;;19.64;98.24;93051.84;4749399;30;20047;-77
2023/06/22 02:07:44;;;;;;;11.27;6.07;;;;;;;19.62;98.32;93047.97;4742774;30;20064;-78
2023/06/22 02:10:13;;;;;;;10.73;5.47;;;;;;;19.59;98.29;93049.41;4751467;30;20086;-78
2023/06/22 02:12:41;;;;;;;11.80;5.90;;;;;;;19.59;98.96;93054.72;4751688;30;20044;-78
2023/06/22 02:15:07;;;;;;;14.43;6.10;;;;;;;19.58;98.89;93042.53;4751326;30;20036;-78
2023/06/22 02:17:33;;;;;;;9.90;5.95;;;;;;;19.58;98.84;93047.06;4753832;30;20076;-78
2023/06/22 02:20:03;;;;;;;12.10;5.85;;;;;;;19.55;98.97;93037.88;4769712;30;20544;-77
2023/06/22 02:22:29;;;;;;;13.82;7.00;;;;;;;19.55;98.49;93045.84;4768498;30;20460;-78
2023/06/22 02:24:55;;;;;;;14.73;5.97;;;;;;;19.55;98.21;93045.84;4752304;30;20060;-78
2023/06/22 02:27:21;;;;;;;11.45;5.75;;;;;;;19.52;98.00;93055.25;4769247;30;20075;-78
2023/06/22 02:29:47;;;;;;;10.05;5.50;;;;;;;19.52;98.38;93043.84;4738322;30;20082;-78
2023/06/22 02:32:13;;;;;;;13.45;5.40;;;;;;;19.50;98.75;93035.44;4770169;30;20063;-77
2023/06/22 02:34:38;;;;;;;12.20;5.88;;;;;;;19.49;98.53;93039.19;4741111;30;20484;-77
2023/06/22 02:37:04;;;;;;;13.02;5.53;;;;;;;19.50;98.26;93035.44;4772817;30;20360;-78
2023/06/22 02:39:31;;;;;;;14.00;6.07;;;;;;;19.49;98.20;93031.22;4741698;30;20385;-77
2023/06/22 02:41:56;;;;;;;13.65;6.05;;;;;;;19.49;98.50;93017.94;4772314;30;20572;-77
2023/06/22 02:44:22;;;;;;;16.48;6.10;;;;;;;19.47;99.02;93014.84;4741658;30;20051;-78
2023/06/22 02:46:48;;;;;;;12.98;5.97;;;;;;;19.44;99.31;93000.34;4757334;30;20053;-78
2023/06/22 02:49:15;;;;;;;12.85;6.03;;;;;;;19.45;99.15;93019.72;4756732;30;20044;-78
2023/06/22 02:51:44;;;;;;;15.65;5.97;;;;;;;19.47;98.38;93026.22;4755339;30;20097;-78
2023/06/22 02:54:10;;;;;;;14.50;5.82;;;;;;;19.49;99.48;93028.56;4755546;30;20101;-78
2023/06/22 02:56:36;;;;;;;10.75;5.90;;;;;;;19.48;99.67;93006.56;4755660;30;20040;-77
2023/06/22 02:59:03;;;;;;;18.88;5.80;;;;;;;19.48;99.28;93001.25;4755824;30;20063;-77
2023/06/22 03:01:39;;;;;;;11.18;6.03;;;;;;;19.51;99.47;93002.47;4768647;30;20501;-78
2023/06/22 03:04:07;;;;;;;16.10;6.35;;;;;;;19.49;99.48;92994.81;4771648;30;20047;-77
2023/06/22 03:06:33;;;;;;;15.27;5.63;;;;;;;19.49;100.00;92986.09;4758065;30;20070;-77
2023/06/22 03:09:00;;;;;;;14.90;6.65;;;;;;;19.48;100.00;92974.72;4773030;30;20068;-77
2023/06/22 03:11:27;;;;;;;15.45;5.93;;;;;;;19.50;99.67;92977.03;4773234;30;20439;-78
2023/06/22 03:13:52;;;;;;;13.43;6.00;;;;;;;19.50;99.51;92998.28;4789242;30;20073;-78
2023/06/22 03:16:19;;;;;;;10.55;5.53;;;;;;;19.50;100.00;93025.59;4773017;30;20100;-78
2023/06/22 03:18:45;;;;;;;13.18;5.40;;;;;;;19.49;99.17;93041.84;4768784;30;20147;-78
2023/06/22 03:21:12;;;;;;;11.63;6.03;;;;;;;19.58;98.76;93037.22;4770237;30;20733;-78
2023/06/22 03:23:37;;;;;;;14.43;5.50;;;;;;;19.57;96.96;93035.69;4755410;30;20139;-78
2023/06/22 03:26:04;;;;;;;16.00;6.03;;;;;;;19.52;96.87;93028.69;4772126;30;20055;-78
2023/06/22 03:28:30;;;;;;;10.52;5.63;;;;;;;19.51;96.55;93016.50;4771862;30;20048;-78
2023/06/22 03:30:58;;;;;;;19.38;5.80;;;;;;;19.48;98.65;93022.50;4770569;30;20039;-77
2023/06/22 03:33:24;;;;;;;16.67;6.05;;;;;;;19.48;98.22;93027.03;4771587;30;20036;-78
2023/06/22 03:35:50;;;;;;;12.60;5.50;;;;;;;19.49;98.22;93017.94;4768531;30;20050;-78
2023/06/22 03:38:17;;;;;;;10.90;5.80;;;;;;;19.51;97.07;93010.44;4770329;30;20075;-77
2023/06/22 03:40:43;;;;;;;13.73;5.25;;;;;;;19.51;96.24;93026.38;4771814;30;20137;-78
2023/06/22 03:43:09;;;;;;;14.60;5.68;;;;;;;19.55;95.55;93033.34;4771257;30;20138;-77
2023/06/22 03:45:35;;;;;;;12.15;5.50;;;;;;;19.57;95.17;93041.00;4769733;30;20044;-77
2023/06/22 03:48:00;;;;;;;14.43;5.88;;;;;;;19.57;96.20;93054.28;4753155;30;20035;-78
2023/06/22 03:50:27;;;;;;;20.02;5.97;;;;;;;19.54;96.18;93063.66;4769653;30;20360;-77
2023/06/22 03:52:52;;;;;;;14.80;6.32;;;;;;;19.54;96.35;93073.50;4768847;30;20407;-78
2023/06/22 03:55:20;;;;;;;18.20;5.85;;;;;;;19.51;96.54;93074.94;4769411;30;20083;-78
2023/06/22 03:57:45;;;;;;;13.98;5.35;;;;;;;19.51;97.39;93079.47;4770603;30;20050;-77
2023/06/22 04:00:11;;;;;;;11.88;5.60;;;;;;;19.53;97.66;93066.66;4767998;30;20511;-78
2023/06/22 04:02:41;;;;;;;17.73;6.00;;;;;;;19.51;97.03;93047.59;4770459;30;20530;-78
2023/06/22 04:05:08;;;;;;;12.02;5.45;;;;;;;19.51;96.41;93058.22;4770475;30;20071;-78
2023/06/22 04:07:36;;;;;;;13.80;5.57;;;;;;;19.51;96.37;93048.38;4770481;30;20035;-78
2023/06/22 04:10:04;;;;;;;16.98;5.38;;;;;;;19.51;97.17;93031.69;4754517;30;20075;-78
2023/06/22 04:12:29;;;;;;;15.32;5.22;;;;;;;19.50;96.77;93030.91;4770430;30;20032;-78
2023/06/22 04:14:55;;;;;;;14.85;5.38;;;;;;;19.53;95.57;93010.88;4767960;30;20047;-77
2023/06/22 04:17:21;;;;;;;12.65;5.80;;;;;;;19.55;96.20;93014.00;4770585;30;20044;-78
2023/06/22 04:19:47;;;;;;;10.25;5.55;;;;;;;19.62;96.25;93029.38;4770305;30;20048;-78
2023/06/22 04:22:12;;;;;;;13.50;5.60;;;;;;;19.53;98.65;93034.78;4770055;30;20048;-77
2023/06/22 04:24:38;;;;;;;13.43;5.78;;;;;;;19.47;98.32;93030.78;4755509;30;20036;-78
2023/06/22 04:27:04;;;;;;;12.75;5.95;;;;;;;19.44;99.23;93020.81;4752909;30;20399;-78
2023/06/22 04:29:30;;;;;;;13.27;6.07;;;;;;;19.42;99.22;93020.38;4751984;30;20431;-78
2023/06/22 04:31:58;;;;;;;12.80;5.07;;;;;;;19.42;99.01;93028.34;4753059;30;20038;-77
2023/06/22 04:34:27;;;;;;;13.75;6.10;;;;;;;19.41;100.00;93040.03;4752404;30;20056;-77
2023/06/22 04:36:53;;;;;;;13.50;5.65;;;;;;;19.39;100.00;93036.97;4751899;30;20044;-78
2023/06/22 04:39:19;;;;;;;12.63;5.82;;;;;;;19.37;100.00;93039.16;4751182;30;20046;-78
2023/06/22 04:41:45;;;;;;;20.15;5.50;;;;;;;19.37;100.00;93039.94;4752559;30;20033;-78
2023/06/22 04:44:24;;;;;;;12.95;5.30;;;;;;;19.38;100.00;93027.44;4752266;30;20524;-78
2023/06/22 04:46:59;;;;;;;12.10;5.10;;;;;;;19.40;99.08;93014.63;4752474;30;20510;-78
2023/06/22 04:49:32;;;;;;;11.07;5.60;;;;;;;19.42;99.13;93012.41;4752104;30;20048;-77
2023/06/22 04:51:58;;;;;;;11.40;5.05;;;;;;;19.45;99.30;93006.44;4752231;30;20036;-77
2023/06/22 04:54:24;;;;;;;17.00;5.63;;;;;;;19.48;98.78;93013.75;4736012;30;20389;-78
2023/06/22 04:56:56;;;;;;;12.38;5.45;;;;;;;19.50;99.15;93028.25;4750306;30;20121;-78
2023/06/22 04:59:27;;;;;;;;;;;;;;;19.53;98.86;93002.94;4752060;30;20051;-77
2023/06/22 05:01:54;;;;;;;11.27;5.25;;;;;;;19.55;98.81;92984.78;4765102;30;19987;-78
2023/06/22 05:04:23;;;;;;;13.88;5.47;;;;;;;19.58;96.96;92988.66;4769832;30;20032;-78
2023/06/22 05:06:48;;;;;;;11.70;5.22;;;;;;;19.60;98.55;93008.47;4768979;30;20419;-78
2023/06/22 05:09:14;;;;;;;15.82;5.13;;;;;;;19.63;98.72;93020.31;4768477;30;20048;-79
2023/06/22 05:11:40;;;;;;;10.15;5.00;;;;;;;19.64;98.66;93030.59;4768262;30;20088;-78
2023/06/22 05:14:05;;;;;;;14.95;5.60;;;;;;;19.66;99.44;93023.09;4768810;30;20551;-78
2023/06/22 05:16:31;;;;;;;13.55;5.55;;;;;;;19.70;99.30;93023.22;4770152;30;20040;-78
2023/06/22 05:18:57;;;;;;;19.55;5.57;;;;;;;19.73;99.61;93033.19;4769507;30;20063;-78
2023/06/22 05:21:24;;;;;;;19.77;5.72;;;;;;;19.75;100.00;93026.44;4769810;30;20047;-78
2023/06/22 05:23:51;;;;;;;17.83;5.85;;;;;;;19.80;100.00;93024.69;4767163;30;20083;-78
2023/06/22 05:26:17;;;;;;;13.18;6.45;;;;;;;19.83;100.00;93026.69;4753462;30;20048;-78
2023/06/22 05:28:45;;;;;;;14.60;5.78;;;;;;;19.85;100.00;93035.09;4769943;30;20034;-78
2023/06/22 05:31:13;;;;;;;11.15;5.40;;;;;;;19.87;100.00;93046.16;4769451;30;20048;-78
2023/06/22 05:33:39;;;;;;;11.95;5.30;;;;;;;19.93;100.00;93039.53;4769780;30;20085;-78
2023/06/22 05:36:05;;;;;;;11.20;5.13;;;;;;;20.05;98.17;93039.53;4755368;30;20426;-78
2023/06/22 05:38:30;;;;;;;13.13;5.57;;;;;;;20.15;95.27;93031.13;4752614;30;20083;-77
2023/06/22 05:40:56;;;;;;;11.32;5.15;;;;;;;20.27;93.49;93029.59;4751877;30;20494;-78
2023/06/22 05:43:22;;;;;;;11.95;5.50;;;;;;;20.41;94.67;93027.34;4764531;30;20093;-78
2023/06/22 05:45:48;;;;;;;15.45;5.78;;;;;;;20.61;93.61;93028.34;4769659;30;20109;-78
2023/06/22 05:48:13;;;;;;;9.13;5.07;;;;;;;20.85;92.25;93027.53;4768510;30;20043;-78
2023/06/22 05:50:39;;;;;;;14.32;5.47;;;;;;;20.88;91.65;93031.41;4754818;30;20083;-78
2023/06/22 05:53:06;;;;;;;13.90;5.72;;;;;;;20.93;92.67;93039.91;4767618;30;20043;-78
2023/06/22 05:55:32;;;;;;;14.55;5.57;;;;;;;20.98;94.64;93042.38;4767743;30;20507;-79
2023/06/22 05:57:58;;;;;;;11.63;5.30;;;;;;;21.03;92.45;93048.53;4767957;30;20031;-79
2023/06/22 06:00:24;;;;;;;15.90;6.47;;;;;;;21.07;93.55;93049.41;4767612;30;20039;-79
2023/06/22 06:02:49;;;;;;;14.88;5.85;;;;;;;21.23;95.84;93046.81;4769380;30;20036;-78
2023/06/22 06:05:16;;;;;;;18.75;5.35;;;;;;;21.34;94.58;93045.97;4769626;30;20039;-78
2023/06/22 06:07:45;;;;;;;15.00;5.38;;;;;;;21.42;95.29;93055.75;4770035;30;20085;-78
2023/06/22 06:10:12;;;;;;;18.52;5.68;;;;;;;21.45;98.15;93058.84;4771376;30;20051;-79
2023/06/22 06:12:37;;;;;;;14.48;5.53;;;;;;;21.53;95.63;93060.59;4755137;30;20035;-78
2023/06/22 06:15:04;;;;;;;13.93;5.88;;;;;;;21.54;96.64;93062.13;4771423;30;20048;-78
2023/06/22 06:17:30;;;;;;;12.02;5.80;;;;;;;21.57;97.02;93061.44;4769178;30;20072;-78
2023/06/22 06:19:56;;;;;;;16.50;6.70;;;;;;;21.65;95.42;93060.53;4772747;30;20044;-78
2023/06/22 06:22:23;;;;;;;12.60;5.90;;;;;;;21.75;100.00;93052.03;4772565;30;20047;-78
2023/06/22 06:24:49;;;;;;;19.98;6.10;;;;;;;21.90;100.00;93047.06;4772628;30;20101;-78
2023/06/22 06:27:18;;;;;;;17.58;6.20;;;;;;;22.19;100.00;93043.97;4754994;30;20051;-78
2023/06/22 06:29:45;;;;;;;13.43;5.80;;;;;;;22.51;89.42;93049.28;4755702;30;20277;-78
2023/06/22 06:32:11;;;;;;;14.63;5.88;;;;;;;23.09;86.48;93039.88;4755255;30;20097;-78
2023/06/22 06:34:36;;;;;;;14.10;6.68;;;;;;;23.49;86.40;93037.63;4754817;30;20036;-78
2023/06/22 06:37:02;;;;;;;20.67;5.32;;;;;;;23.66;81.46;93043.63;4725088;30;20036;-78
2023/06/22 06:39:28;;;;;;;12.73;5.45;;;;;;;23.70;81.75;93042.56;4754801;30;20126;-79
2023/06/22 06:41:53;;;;;;;14.73;5.45;;;;;;;23.72;82.99;93041.47;4755021;30;20052;-79
2023/06/22 06:44:19;;;;;;;13.63;5.50;;;;;;;23.90;85.27;93043.34;4753749;30;20066;-78
2023/06/22 06:46:44;;;;;;;14.93;5.70;;;;;;;24.05;83.66;93041.69;4753814;30;20521;-79
2023/06/22 06:49:10;;;;;;;14.55;6.45;;;;;;;24.10;88.13;93043.28;4755389;30;20091;-79
2023/06/22 06:51:36;;;;;;;13.85;6.90;;;;;;;24.13;86.68;93037.22;4754702;30;20078;-79
2023/06/22 06:54:03;;;;;;;14.30;6.00;;;;;;;24.52;82.52;93037.09;4754788;30;20032;-78
2023/06/22 06:56:29;;;;;;;17.00;6.07;;;;;;;24.77;81.44;93039.31;4739189;30;20064;-78
2023/06/22 06:58:55;;;;;;;19.00;6.13;;;;;;;24.56;81.55;93051.28;4754454;30;20068;-78
2023/06/22 07:01:20;;;;;;;12.88;5.68;;;;;;;24.48;80.87;93060.34;4753891;30;20051;-78
2023/06/22 07:03:46;;;;;;;17.05;6.43;;;;;;;24.25;83.04;93050.41;4754612;30;20101;-79
2023/06/22 07:06:13;;;;;;;15.65;6.50;;;;;;;23.97;85.54;93050.69;4738939;30;20093;-78
2023/06/22 07:08:39;;;;;;;17.63;6.07;;;;;;;24.10;82.83;93045.97;4754889;30;20456;-78
2023/06/22 07:11:05;;;;;;;15.52;6.10;;;;;;;24.24;83.68;93048.09;4755496;30;20066;-79
2023/06/22 07:13:31;;;;;;;15.38;5.82;;;;;;;24.27;84.43;93047.34;4755078;30;20048;-79
2023/06/22 07:15:56;;;;;;;23.00;6.13;;;;;;;24.18;79.66;93044.94;4753530;30;20059;-79
2023/06/22 07:18:23;;;;;;;18.50;6.47;;;;;;;24.19;81.60;93046.50;4752580;30;20055;-79
2023/06/22 07:20:49;;;;;;;16.30;6.18;;;;;;;24.42;82.87;93051.03;4754697;30;20048;-78
2023/06/22 07:23:15;;;;;;;12.90;6.07;;;;;;;24.67;80.92;93054.13;4755853;30;20044;-79
2023/06/22 07:25:40;;;;;;;14.63;5.72;;;;;;;24.81;81.02;93048.19;4754809;30;20044;-78
2023/06/22 07:28:07;;;;;;;16.38;6.78;;;;;;;25.07;83.74;93045.47;4755018;30;20063;-79
2023/06/22 07:30:33;;;;;;;14.80;6.97;;;;;;;25.14;81.59;93044.78;4754605;30;20407;-78
2023/06/22 07:33:03;;;;;;;22.13;7.05;;;;;;;24.80;85.33;93042.06;4754236;30;20040;-79
2023/06/22 07:35:30;;;;;;;25.00;7.80;;;;;;;24.76;88.71;93030.53;4753562;30;20505;-79
2023/06/22 07:37:56;;;;;;;17.00;7.65;;;;;;;24.92;91.13;93027.69;4753949;30;20056;-78
2023/06/22 07:40:21;;;;;;;14.48;7.25;;;;;;;25.23;87.97;93031.16;4754257;30;20040;-78
2023/06/22 07:42:51;;;;;;;13.88;7.10;;;;;;;25.32;83.96;93034.31;4752383;30;20040;-79
2023/06/22 07:45:17;;;;;;;16.35;7.75;;;;;;;25.17;85.92;93027.22;4753684;30;20044;-78
2023/06/22 07:47:43;;;;;;;13.35;7.25;;;;;;;24.69;89.79;93031.19;4754617;30;20693;-79
2023/06/22 07:50:09;;;;;;;21.05;8.80;;;;;;;24.34;94.90;93022.63;4738461;30;20048;-78
2023/06/22 07:52:35;;;;;;;20.50;8.02;;;;;;;24.34;95.52;93026.09;4754262;30;20060;-78
2023/06/22 07:55:02;;;;;;;20.33;8.20;;;;;;;24.46;93.86;93022.44;4752145;30;20488;-78
2023/06/22 07:57:36;;;;;;;17.55;6.90;;;;;;;24.41;87.38;93014.69;4753704;30;20055;-79
2023/06/22 08:00:11;;;;;;;14.20;7.13;;;;;;;24.32;87.20;93009.63;4768766;30;20047;-79
2023/06/22 08:02:38;;;;;;;14.20;7.28;;;;;;;24.43;84.75;93004.41;4771582;30;20052;-79
2023/06/22 08:05:04;;;;;;;21.33;6.50;;;;;;;24.65;84.23;92998.25;4770782;30;20411;-78
2023/06/22 08:07:32;;;;;;;20.67;6.78;;;;;;;24.60;82.97;92989.78;4770663;30;20056;-79
2023/06/22 08:09:58;;;;;;;15.93;7.65;;;;;;;24.69;94.94;92988.38;4769860;30;20090;-79
2023/06/22 08:12:23;;;;;;;17.50;8.82;;;;;;;24.75;95.00;92994.19;4771502;30;20100;-78
2023/06/22 08:14:50;;;;;;;15.65;8.63;;;;;;;24.80;95.82;92996.56;4771906;30;20046;-78
2023/06/22 08:17:15;;;;;;;13.35;7.28;;;;;;;24.98;88.17;92996.78;4755400;30;20048;-79
2023/06/22 08:19:41;;;;;;;19.70;7.10;;;;;;;24.93;93.12;92999.78;4755342;30;20447;-79
2023/06/22 08:22:07;;;;;;;12.50;6.20;;;;;;;24.98;78.02;93004.81;4759602;30;20081;-78
2023/06/22 08:24:32;;;;;;;12.50;7.82;;;;;;;24.93;92.12;93013.94;4752838;30;20032;-78
2023/06/22 08:26:58;;;;;;;14.93;6.55;;;;;;;25.10;87.94;93015.28;4752232;30;20052;-78
2023/06/22 08:29:23;;;;;;;12.38;5.50;;;;;;;25.38;83.52;93016.78;4752787;30;20135;-78
2023/06/22 08:31:49;;;;;;;10.50;5.80;;;;;;;25.67;73.84;93015.19;4752473;30;20035;-78
2023/06/22 08:34:15;;;;;;;14.52;6.05;;;;;;;26.09;73.21;93021.31;4754235;30;20047;-78
2023/06/22 08:36:43;;;;;;;14.70;5.90;;;;;;;26.13;71.48;93027.50;4752699;30;20040;-78
2023/06/22 08:39:08;;;;;;;11.18;6.38;;;;;;;26.13;70.76;93038.22;4753100;30;20510;-78
2023/06/22 08:41:34;;;;;;;13.15;6.88;;;;;;;26.13;81.35;93039.00;4752346;30;20049;-78
2023/06/22 08:43:59;;;;;;;12.05;7.53;;;;;;;25.85;83.29;93031.44;4752816;30;20044;-78
2023/06/22 08:46:30;;;;;;;14.73;8.57;;;;;;;25.72;84.01;93032.84;4752919;30;20043;-78
2023/06/22 08:48:59;;;;;;;17.08;8.00;;;;;;;25.60;82.86;93031.19;4751241;30;20062;-78
2023/06/22 08:51:24;;;;;;;15.50;7.28;;;;;;;25.64;83.42;93029.31;4751960;30;20062;-78
2023/06/22 08:53:50;;;;;;;17.73;7.75;;;;;;;25.22;86.67;93032.28;4752151;30;20500;-78
2023/06/22 08:56:16;;;;;;;19.88;8.57;;;;;;;25.19;88.20;93033.78;4752401;30;20059;-78
2023/06/22 08:58:41;;;;;;;16.48;8.13;;;;;;;25.37;87.09;93034.00;4756185;30;20036;-78
2023/06/22 09:01:07;;;;;;;14.63;6.82;;;;;;;25.67;74.59;93038.53;4757597;30;20032;-78
2023/06/22 09:03:36;;;;;;;18.10;6.30;;;;;;;25.82;69.67;93040.22;4750720;30;20101;-78
2023/06/22 09:06:01;;;;;;;16.90;8.07;;;;;;;26.02;83.36;93037.38;4752346;30;20040;-79
2023/06/22 09:08:27;;;;;;;14.70;8.30;;;;;;;25.80;84.89;93039.03;4753255;30;20051;-78
2023/06/22 09:10:53;;;;;;;16.80;8.07;;;;;;;25.67;85.94;93041.19;4750991;30;20047;-78
2023/06/22 09:13:18;;;;;;;16.27;8.45;;;;;;;25.43;87.59;93032.53;4751771;30;20557;-78
2023/06/22 09:15:44;;;;;;;14.98;7.50;;;;;;;25.73;89.36;93031.69;4751628;30;20054;-78
2023/06/22 09:18:14;;;;;;;17.20;7.10;;;;;;;25.70;81.92;93024.41;4751486;30;20124;-78
2023/06/22 09:20:39;;;;;;;18.08;7.10;;;;;;;25.90;80.35;93028.44;4751670;30;20040;-78
2023/06/22 09:23:05;;;;;;;15.88;6.50;;;;;;;26.07;70.99;93023.59;4752627;30;20413;-79
2023/06/22 09:25:30;;;;;;;14.50;6.93;;;;;;;26.33;77.97;93020.75;4751562;30;20401;-78
2023/06/22 09:27:56;;;;;;;13.30;7.57;;;;;;;26.17;79.17;93029.06;4736107;30;20523;-78
2023/06/22 09:30:22;;;;;;;19.17;7.65;;;;;;;25.90;82.52;93028.44;4751744;30;20032;-78
2023/06/22 09:32:48;;;;;;;16.25;7.90;;;;;;;25.88;79.05;93038.78;4751534;30;20040;-78
2023/06/22 09:35:13;;;;;;;16.90;8.30;;;;;;;25.65;78.96;93028.19;4751356;30;20655;-78
2023/06/22 09:37:40;;;;;;;16.27;7.72;;;;;;;25.43;79.74;93040.59;4753436;30;20036;-80
2023/06/22 09:40:10;;;;;;;18.08;7.10;;;;;;;25.67;80.96;93035.84;4752178;30;20052;-78
2023/06/22 09:42:35;;;;;;;14.55;7.10;;;;;;;25.77;80.08;93027.16;4751035;30;20455;-78
2023/06/22 09:45:01;;;;;;;17.27;7.28;;;;;;;25.67;80.31;93025.13;4750501;30;20060;-77
2023/06/22 09:47:27;;;;;;;18.73;7.38;;;;;;;25.74;78.93;93025.22;4753485;30;20044;-79
2023/06/22 09:49:55;;;;;;;19.52;7.53;;;;;;;26.03;77.17;93022.81;4736131;30;20052;-78
2023/06/22 09:52:21;;;;;;;18.10;7.15;;;;;;;26.05;76.47;93025.88;4751851;30;20068;-78
2023/06/22 09:54:47;;;;;;;15.20;7.07;;;;;;;26.13;73.82;93022.13;4751260;30;20048;-78
2023/06/22 09:57:13;;;;;;;17.35;7.55;;;;;;;26.29;74.93;93005.78;4750625;30;20052;-78
2023/06/22 09:59:41;;;;;;;20.40;8.20;;;;;;;26.55;76.30;93010.22;4766841;30;20127;-78
2023/06/22 10:02:07;;;;;;;9.80;6.10;;;;;;;26.42;65.83;93009.72;4768800;30;20403;-78
2023/06/22 10:04:34;;;;;;;13.90;7.43;;;;;;;26.31;70.75;92996.22;4768848;30;20040;-78
2023/06/22 10:07:01;;;;;;;15.55;6.20;;;;;;;26.16;72.10;92995.34;4768914;30;20481;-78
2023/06/22 10:09:26;;;;;;;17.70;6.95;;;;;;;26.19;70.89;92988.47;4755726;30;20531;-78
2023/06/22 10:11:52;;;;;;;13.00;7.25;;;;;;;26.11;69.95;92986.84;4751750;30;20032;-78
2023/06/22 10:14:18;;;;;;;14.10;7.40;;;;;;;26.17;72.59;92990.75;4751684;30;20044;-78
2023/06/22 10:16:44;;;;;;;13.23;6.45;;;;;;;25.96;70.74;92989.44;4735587;30;20101;-78
2023/06/22 10:19:10;;;;;;;17.25;6.90;;;;;;;26.03;71.96;92990.63;4751154;30;20127;-78
2023/06/22 10:21:36;;;;;;;19.27;7.47;;;;;;;26.16;69.58;92978.47;4750854;30;20124;-78
2023/06/22 10:24:05;;;;;;;19.23;6.97;;;;;;;26.16;68.97;92973.09;4751963;30;20540;-78
2023/06/22 10:26:35;;;;;;;16.67;7.57;;;;;;;26.58;70.09;92963.81;4751322;30;20048;-78
2023/06/22 10:29:02;;;;;;;15.40;6.70;;;;;;;26.36;68.55;92960.97;4735625;30;20040;-77
2023/06/22 10:31:28;;;;;;;15.55;7.68;;;;;;;26.63;69.81;92957.31;4751744;30;20492;-78
2023/06/22 10:33:54;;;;;;;16.33;6.80;;;;;;;26.68;66.41;92949.69;4750937;30;20040;-78
2023/06/22 10:36:21;;;;;;;18.83;6.97;;;;;;;26.92;66.88;92955.53;4751119;30;20407;-78
2023/06/22 10:38:47;;;;;;;19.13;6.85;;;;;;;27.15;65.30;92953.31;4752881;30;20044;-78
2023/06/22 10:41:13;;;;;;;16.13;6.40;;;;;;;27.50;64.07;92948.47;4751033;30;20044;-78
2023/06/22 10:43:39;;;;;;;17.17;6.78;;;;;;;27.47;60.90;92944.63;4752144;30;20032;-79
2023/06/22 10:46:05;;;;;;;16.35;6.53;;;;;;;27.08;59.68;92939.88;4754260;30;20064;-78
2023/06/22 10:48:30;;;;;;;17.55;6.78;;;;;;;27.10;61.49;92937.56;4770584;30;20035;-78
2023/06/22 10:50:56;;;;;;;16.83;7.50;;;;;;;27.24;62.19;92938.78;4767828;30;20097;-78
2023/06/22 10:53:21;;;;;;;18.13;7.25;;;;;;;27.51;63.57;92934.63;4768434;30;20044;-78
2023/06/22 10:55:47;;;;;;;18.48;6.90;;;;;;;27.25;61.36;92933.06;4756210;30;20402;-78
2023/06/22 10:58:13;;;;;;;21.05;7.05;;;;;;;27.10;60.70;92926.81;4769731;30;20071;-79
2023/06/22 11:00:38;;;;;;;12.50;6.60;;;;;;;27.25;59.55;92930.38;4754549;30;20499;-78
2023/06/22 11:03:04;;;;;;;17.55;6.65;;;;;;;27.36;58.22;92923.09;4754491;30;20057;-78
2023/06/22 11:05:29;;;;;;;17.58;6.55;;;;;;;27.64;59.17;92920.81;4757813;30;20035;-78
2023/06/22 11:07:55;;;;;;;14.90;6.10;;;;;;;27.64;56.51;92921.59;4754598;30;20028;-79
2023/06/22 11:10:21;;;;;;;12.10;6.10;;;;;;;27.65;58.60;92911.59;4754758;30;20514;-78
2023/06/22 11:12:46;;;;;;;14.23;5.72;;;;;;;27.74;52.83;92911.97;4754422;30;20032;-78
2023/06/22 11:15:12;;;;;;;13.57;5.03;;;;;;;27.79;49.49;92917.00;4754505;30;20048;-79
2023/06/22 11:17:38;;;;;;;18.25;5.55;;;;;;;27.73;47.85;92916.59;4753972;30;20064;-78
2023/06/22 11:20:10;;;;;;;11.68;5.03;;;;;;;27.98;47.51;92907.78;4752823;30;20128;-78
2023/06/22 11:22:37;;;;;;;12.65;5.00;;;;;;;28.12;46.22;92909.69;4770026;30;20052;-79
2023/06/22 11:25:03;;;;;;;13.43;6.10;;;;;;;28.11;51.40;92900.09;4770479;30;20073;-78